Time;durP1;ratioP1;P1;durP2;ratioP2;P2;SDS_P1;SDS_P2;PMS_P1;PMS_P2;Temp;Humidity;BMP_temperature;BMP_pressure;BME280_temperature;BME280_humidity;BME280_pressure;Samples;Min_cycle;Max_cycle;Signal;HPM_P1;HPM_P2
2020/12/02 00:01:46;;;;;;;33.72;19.58;;;6.70;96.60;;;;;;8404195;28;20048;-70
2020/12/02 00:05:51;;;;;;;33.08;20.17;;;6.70;96.60;;;;;;8399127;28;20048;-70
2020/12/02 00:09:53;;;;;;;33.15;20.13;;;6.70;96.60;;;;;;8400450;28;20525;-70
2020/12/02 00:13:58;;;;;;;32.17;20.27;;;6.70;96.60;;;;;;8418755;27;20129;-70
2020/12/02 00:18:00;;;;;;;30.35;18.75;;;6.70;96.60;;;;;;8407202;28;20060;-70
2020/12/02 00:22:09;;;;;;;29.27;19.10;;;6.60;96.50;;;;;;8401690;28;20066;-70
2020/12/02 00:26:15;;;;;;;24.67;16.50;;;6.60;96.50;;;;;;8418011;28;20085;-70
2020/12/02 00:30:18;;;;;;;27.52;17.58;;;6.60;96.50;;;;;;8403990;28;20048;-70
2020/12/02 00:34:19;;;;;;;26.75;17.70;;;6.50;96.40;;;;;;8405827;28;20074;-70
2020/12/02 00:38:22;;;;;;;27.70;17.35;;;6.40;96.40;;;;;;8391024;28;20172;-70
2020/12/02 00:42:24;;;;;;;28.60;17.80;;;6.40;96.60;;;;;;8403126;28;20063;-70
2020/12/02 00:46:25;;;;;;;24.23;17.08;;;6.40;96.70;;;;;;8396329;28;20579;-69
2020/12/02 00:50:27;;;;;;;26.45;17.17;;;6.40;96.50;;;;;;8399258;28;20574;-69
2020/12/02 00:54:28;;;;;;;27.23;16.80;;;6.40;96.20;;;;;;8406063;28;20565;-69
2020/12/02 00:59:07;;;;;;;24.95;15.52;;;6.30;96.00;;;;;;8401785;28;20101;-69
2020/12/02 01:03:27;;;;;;;25.52;16.27;;;6.20;96.10;;;;;;8413949;28;20056;-69
2020/12/02 01:07:29;;;;;;;25.23;16.13;;;6.20;96.30;;;;;;8404094;28;20040;-69
2020/12/02 01:11:31;;;;;;;22.48;15.45;;;6.20;96.30;;;;;;8400683;28;20044;-69
2020/12/02 01:15:32;;;;;;;;;;;6.00;96.20;;;;;;8404970;28;20079;-69
2020/12/02 01:19:38;;;;;;;24.23;15.15;;;6.10;96.20;;;;;;8401450;28;19931;-69
2020/12/02 01:23:40;;;;;;;23.63;15.68;;;6.10;96.40;;;;;;8404258;28;20493;-69
2020/12/02 01:27:55;;;;;;;22.05;14.45;;;6.10;96.10;;;;;;8406134;28;20052;-69
2020/12/02 01:31:57;;;;;;;21.60;14.25;;;6.00;96.20;;;;;;8408841;28;20082;-69
2020/12/02 01:35:58;;;;;;;23.77;15.57;;;6.00;95.90;;;;;;8407343;28;20105;-69
2020/12/02 01:40:29;;;;;;;22.45;15.25;;;6.00;95.70;;;;;;8404211;28;20048;-69
2020/12/02 01:44:31;;;;;;;21.30;15.13;;;6.00;95.40;;;;;;8403415;28;20125;-70
2020/12/02 01:48:41;;;;;;;22.88;15.52;;;6.60;95.70;;;;;;8409019;28;20047;-69
2020/12/02 01:52:59;;;;;;;24.67;16.65;;;6.00;95.60;;;;;;8408533;28;20040;-70
2020/12/02 01:57:11;;;;;;;27.55;16.77;;;6.00;95.70;;;;;;8416888;28;20059;-69
2020/12/02 02:01:50;;;;;;;24.67;16.88;;;5.90;95.60;;;;;;8408437;28;20044;-70
2020/12/02 02:05:57;;;;;;;25.85;17.13;;;5.90;95.30;;;;;;8396377;28;20067;-70
2020/12/02 02:10:06;;;;;;;23.30;15.85;;;5.90;95.50;;;;;;8405179;28;20057;-70
2020/12/02 02:14:16;;;;;;;24.02;16.67;;;5.90;95.30;;;;;;8408080;28;20041;-69
2020/12/02 02:18:21;;;;;;;26.90;16.63;;;5.90;95.50;;;;;;8406527;28;20582;-70
2020/12/02 02:22:23;;;;;;;24.40;16.48;;;5.90;95.60;;;;;;8408996;28;20052;-70
2020/12/02 02:26:32;;;;;;;25.43;16.80;;;5.80;95.50;;;;;;8403749;28;20103;-70
2020/12/02 02:30:35;;;;;;;27.75;18.00;;;5.80;95.60;;;;;;8425178;28;20083;-70
2020/12/02 02:34:38;;;;;;;26.40;17.30;;;5.80;95.40;;;;;;8392941;28;20048;-69
2020/12/02 02:38:41;;;;;;;29.65;18.13;;;5.80;95.60;;;;;;8398559;28;20048;-69
2020/12/02 02:42:45;;;;;;;28.60;19.27;;;6.20;95.70;;;;;;8419736;28;20056;-70
2020/12/02 02:46:49;;;;;;;28.95;20.17;;;5.90;95.20;;;;;;8388302;28;20575;-69
2020/12/02 02:50:50;;;;;;;32.00;20.63;;;5.80;95.40;;;;;;8404083;28;20097;-69
2020/12/02 02:54:53;;;;;;;29.70;19.90;;;5.80;95.50;;;;;;8396987;28;20057;-69
2020/12/02 02:58:55;;;;;;;28.45;19.48;;;5.80;95.50;;;;;;8407046;28;20052;-69
2020/12/02 03:02:57;;;;;;;30.90;19.70;;;5.80;95.30;;;;;;8407831;28;20525;-68
2020/12/02 03:07:00;;;;;;;29.88;20.45;;;5.70;95.40;;;;;;8414938;28;20048;-69
2020/12/02 03:11:04;;;;;;;31.92;21.33;;;5.70;95.40;;;;;;8399713;28;20594;-68
2020/12/02 03:15:07;;;;;;;29.00;19.63;;;5.70;95.40;;;;;;8405902;28;20441;-69
2020/12/02 03:19:23;;;;;;;32.85;22.02;;;5.60;95.30;;;;;;8404324;28;20056;-70
2020/12/02 03:23:26;;;;;;;30.23;21.08;;;5.60;95.20;;;;;;8399524;28;20048;-69
2020/12/02 03:27:27;;;;;;;32.85;21.27;;;5.60;95.00;;;;;;8395307;28;20060;-70
2020/12/02 03:31:29;;;;;;;31.90;21.93;;;5.60;95.10;;;;;;8404697;28;20074;-70
2020/12/02 03:35:32;;;;;;;30.05;20.45;;;5.70;95.10;;;;;;8404156;28;20056;-70
2020/12/02 03:39:34;;;;;;;30.13;22.43;;;5.60;95.10;;;;;;8406373;28;20523;-69
2020/12/02 03:43:35;;;;;;;27.85;18.42;;;5.60;94.80;;;;;;8402386;28;20044;-69
2020/12/02 03:47:38;;;;;;;29.47;18.73;;;5.50;94.70;;;;;;8400941;28;20040;-69
2020/12/02 03:51:39;;;;;;;30.83;20.55;;;5.60;94.80;;;;;;8406450;28;20109;-69
2020/12/02 03:55:41;;;;;;;33.03;21.08;;;5.30;94.60;;;;;;8405448;28;20044;-69
2020/12/02 03:59:42;;;;;;;32.93;21.90;;;5.40;94.60;;;;;;8414868;28;20048;-69
2020/12/02 04:03:44;;;;;;;29.70;20.50;;;5.40;94.70;;;;;;8402455;28;20045;-68
2020/12/02 04:07:45;;;;;;;30.57;20.87;;;5.40;94.80;;;;;;8405498;28;21742;-68
2020/12/02 04:11:47;;;;;;;31.90;20.45;;;5.40;94.80;;;;;;8405803;28;20047;-69
2020/12/02 04:15:48;;;;;;;30.43;19.83;;;5.50;94.80;;;;;;8404564;28;20059;-69
2020/12/02 04:19:50;;;;;;;31.10;21.27;;;5.50;95.10;;;;;;8387138;28;20123;-70
2020/12/02 04:23:56;;;;;;;30.00;19.90;;;5.70;94.80;;;;;;8385579;28;20055;-70
2020/12/02 04:27:58;;;;;;;28.45;19.17;;;5.50;94.60;;;;;;8405373;28;20514;-69
2020/12/02 04:31:59;;;;;;;30.17;19.53;;;5.60;94.20;;;;;;8388950;28;20044;-69
2020/12/02 04:36:01;;;;;;;35.15;21.13;;;5.40;94.40;;;;;;8402641;28;20484;-69
2020/12/02 04:40:09;;;;;;;30.50;19.67;;;5.40;94.60;;;;;;8403143;28;20048;-69
2020/12/02 04:44:12;;;;;;;33.72;20.00;;;6.10;94.60;;;;;;8402936;28;20074;-69
2020/12/02 04:48:18;;;;;;;32.42;20.20;;;5.50;94.50;;;;;;8403456;28;20082;-69
2020/12/02 04:52:22;;;;;;;31.38;19.10;;;5.50;94.50;;;;;;8404564;28;20055;-69
2020/12/02 04:56:26;;;;;;;33.13;20.42;;;5.40;94.50;;;;;;8403196;28;20064;-69
2020/12/02 05:00:32;;;;;;;35.83;21.05;;;5.40;94.50;;;;;;8403210;28;20188;-69
2020/12/02 05:04:34;;;;;;;30.90;18.95;;;5.40;94.60;;;;;;8398752;28;20047;-69
2020/12/02 05:08:35;;;;;;;30.60;18.35;;;5.60;94.50;;;;;;8398277;28;20044;-68
2020/12/02 05:12:41;;;;;;;31.63;19.50;;;5.40;94.50;;;;;;8401010;28;20055;-69
2020/12/02 05:16:42;;;;;;;30.70;20.38;;;5.40;94.50;;;;;;8404151;28;20105;-70
2020/12/02 05:20:59;;;;;;;31.97;19.77;;;5.30;94.40;;;;;;8404116;28;20052;-70
2020/12/02 05:25:01;;;;;;;34.20;20.88;;;5.40;94.40;;;;;;8420022;28;20364;-69
2020/12/02 05:29:22;;;;;;;32.05;19.50;;;5.30;94.50;;;;;;8402082;28;20048;-70
2020/12/02 05:33:24;;;;;;;34.15;20.80;;;5.30;94.60;;;;;;8403350;28;20444;-70
2020/12/02 05:37:37;;;;;;;31.77;18.83;;;5.10;94.50;;;;;;8401895;28;20537;-69
2020/12/02 05:41:39;;;;;;;32.33;20.17;;;5.30;94.50;;;;;;8399871;28;20056;-69
2020/12/02 05:45:44;;;;;;;35.50;19.53;;;5.30;94.60;;;;;;8404971;28;20591;-72
2020/12/02 05:49:54;;;;;;;26.55;17.02;;;5.40;94.60;;;;;;8403850;28;20464;-68
2020/12/02 05:53:59;;;;;;;28.58;15.95;;;5.40;94.40;;;;;;8403453;28;20051;-69
2020/12/02 05:58:12;;;;;;;32.08;18.70;;;5.40;94.50;;;;;;8394942;28;20051;-66
2020/12/02 06:02:16;;;;;;;27.75;17.92;;;5.40;94.20;;;;;;8403532;28;20052;-69
2020/12/02 06:06:21;;;;;;;29.95;18.88;;;5.50;94.20;;;;;;8400795;28;20049;-69
2020/12/02 06:10:45;;;;;;;30.55;17.85;;;5.50;94.30;;;;;;8386366;28;20060;-69
2020/12/02 06:14:48;;;;;;;30.75;18.48;;;5.60;94.30;;;;;;8401440;28;20056;-69
2020/12/02 06:18:49;;;;;;;26.83;17.90;;;5.50;94.60;;;;;;8408364;28;20051;-69
2020/12/02 06:22:52;;;;;;;29.27;18.03;;;5.60;94.30;;;;;;8391398;28;20536;-69
2020/12/02 06:26:54;;;;;;;31.77;19.38;;;5.60;94.30;;;;;;8409690;28;20044;-70
2020/12/02 06:30:56;;;;;;;28.27;18.77;;;5.60;94.30;;;;;;8407005;28;20413;-69
2020/12/02 06:35:14;;;;;;;31.15;19.45;;;5.60;94.30;;;;;;8404594;28;20067;-68
2020/12/02 06:39:26;;;;;;;29.52;18.33;;;5.70;94.10;;;;;;8412758;28;20068;-68
2020/12/02 06:43:44;;;;;;;30.45;18.70;;;5.60;94.20;;;;;;8407313;28;20044;-67
2020/12/02 06:47:49;;;;;;;32.22;19.45;;;5.30;94.00;;;;;;8406481;28;20071;-69
2020/12/02 06:52:02;;;;;;;32.00;19.42;;;5.50;94.10;;;;;;8408112;28;20052;-68
2020/12/02 06:56:04;;;;;;;30.63;18.55;;;5.50;94.30;;;;;;8403891;28;20040;-68
2020/12/02 07:00:20;;;;;;;28.48;17.45;;;5.40;94.30;;;;;;8403467;28;20413;-70
2020/12/02 07:04:23;;;;;;;32.65;20.40;;;5.40;94.30;;;;;;8406129;28;20043;-69
2020/12/02 07:08:31;;;;;;;30.02;18.73;;;5.10;93.90;;;;;;8396380;28;20417;-69
2020/12/02 07:12:32;;;;;;;33.38;20.45;;;5.40;94.30;;;;;;8399120;28;20163;-70
2020/12/02 07:16:34;;;;;;;35.23;21.30;;;5.40;94.30;;;;;;8399048;28;20051;-69
2020/12/02 07:20:37;;;;;;;30.65;19.85;;;5.40;94.40;;;;;;8398303;28;20136;-69
2020/12/02 07:25:01;;;;;;;32.40;20.27;;;5.50;94.60;;;;;;8404838;28;20049;-71
2020/12/02 07:29:16;;;;;;;33.70;20.67;;;5.40;94.50;;;;;;8405646;27;20060;-71
2020/12/02 07:33:23;;;;;;;32.60;19.13;;;5.40;94.50;;;;;;8405047;28;20043;-71
2020/12/02 07:37:24;;;;;;;40.00;21.67;;;5.40;94.60;;;;;;8405762;28;20051;-71
2020/12/02 07:41:26;;;;;;;35.73;20.97;;;5.50;94.60;;;;;;8405406;28;20036;-71
2020/12/02 07:45:32;;;;;;;38.47;22.10;;;5.50;94.60;;;;;;8405051;28;20083;-71
2020/12/02 07:49:37;;;;;;;34.00;20.35;;;5.60;94.50;;;;;;8405728;28;20036;-71
2020/12/02 07:53:39;;;;;;;36.00;21.83;;;6.10;94.60;;;;;;8400570;28;20583;-71
2020/12/02 07:57:40;;;;;;;33.53;20.02;;;6.00;94.50;;;;;;8406917;28;20444;-71
2020/12/02 08:02:01;;;;;;;36.33;22.35;;;5.70;94.40;;;;;;8405118;28;20056;-71
2020/12/02 08:06:05;;;;;;;28.05;17.08;;;5.80;94.40;;;;;;8402559;28;20502;-70
2020/12/02 08:10:08;;;;;;;27.90;17.40;;;5.80;94.50;;;;;;8401983;28;20044;-71
2020/12/02 08:14:23;;;;;;;29.77;17.38;;;5.90;94.50;;;;;;8400364;27;20234;-71
2020/12/02 08:18:26;;;;;;;31.90;19.05;;;6.10;94.50;;;;;;8406591;28;20052;-71
2020/12/02 08:22:45;;;;;;;36.00;21.42;;;6.10;94.30;;;;;;8402988;28;20083;-71
2020/12/02 08:26:50;;;;;;;32.92;20.17;;;6.30;94.20;;;;;;8402311;28;20052;-70
2020/12/02 08:31:21;;;;;;;31.42;16.40;;;6.30;94.00;;;;;;8404682;28;20056;-71
2020/12/02 08:35:36;;;;;;;29.90;19.13;;;6.30;94.00;;;;;;8399190;28;20105;-71
2020/12/02 08:39:46;;;;;;;31.20;19.13;;;6.20;93.80;;;;;;8406493;28;20098;-71
2020/12/02 08:43:48;;;;;;;37.10;21.00;;;6.20;94.00;;;;;;8410239;28;20126;-67
2020/12/02 08:47:54;;;;;;;33.00;20.63;;;6.20;94.00;;;;;;8397365;28;20047;-67
2020/12/02 08:51:56;;;;;;;32.67;20.00;;;6.10;94.00;;;;;;8397441;28;20044;-67
2020/12/02 08:55:59;;;;;;;32.30;19.10;;;6.10;94.10;;;;;;8400088;28;20044;-68
2020/12/02 09:00:00;;;;;;;37.05;20.13;;;6.00;94.10;;;;;;8402522;28;20040;-67
2020/12/02 09:04:02;;;;;;;33.40;20.40;;;6.00;94.10;;;;;;8407360;28;20505;-67
2020/12/02 09:08:04;;;;;;;35.42;20.17;;;5.90;94.10;;;;;;8391615;27;20087;-66
2020/12/02 09:12:06;;;;;;;30.52;19.60;;;5.90;94.20;;;;;;8402468;28;20101;-67
2020/12/02 09:16:07;;;;;;;35.90;20.25;;;5.80;94.20;;;;;;8402597;28;20533;-67
2020/12/02 09:20:09;;;;;;;32.53;18.80;;;5.80;94.30;;;;;;8396545;28;20101;-66
2020/12/02 09:24:17;;;;;;;38.17;20.48;;;5.80;94.30;;;;;;8405954;28;21439;-67
2020/12/02 09:28:18;;;;;;;36.45;17.98;;;5.80;94.30;;;;;;8405841;28;20044;-67
2020/12/02 09:32:20;;;;;;;29.57;17.13;;;5.70;94.30;;;;;;8401232;28;20059;-67
2020/12/02 09:36:23;;;;;;;33.13;18.70;;;5.80;94.30;;;;;;8409596;28;20040;-66
2020/12/02 09:40:24;;;;;;;33.88;18.75;;;5.80;94.30;;;;;;8394074;28;20048;-67
2020/12/02 09:45:01;;;;;;;35.50;18.88;;;5.70;94.20;;;;;;8403224;27;20084;-67
2020/12/02 09:49:05;;;;;;;33.05;18.70;;;5.70;94.20;;;;;;8401057;28;20059;-67
2020/12/02 09:53:20;;;;;;;31.77;17.73;;;5.60;94.20;;;;;;8414478;28;20051;-67
2020/12/02 09:57:26;;;;;;;32.33;14.98;;;5.70;94.10;;;;;;8406933;28;20054;-67
2020/12/02 10:01:40;;;;;;;28.30;15.35;;;5.70;94.10;;;;;;8409254;28;20139;-67
2020/12/02 10:06:04;;;;;;;37.00;18.30;;;5.70;94.00;;;;;;8407819;28;21031;-67
2020/12/02 10:10:13;;;;;;;31.60;17.10;;;5.60;94.00;;;;;;8405902;28;20131;-67
2020/12/02 10:14:31;;;;;;;29.83;15.85;;;5.60;94.10;;;;;;8403936;28;21656;-67
2020/12/02 10:18:42;;;;;;;27.88;15.38;;;5.60;94.10;;;;;;8402076;27;20681;-67
2020/12/02 10:22:53;;;;;;;27.40;15.82;;;5.60;94.10;;;;;;8406194;28;20103;-67
2020/12/02 10:27:34;;;;;;;29.70;17.02;;;5.60;94.10;;;;;;8403210;27;20234;-67
2020/12/02 10:31:53;;;;;;;30.40;18.27;;;5.60;94.00;;;;;;8417103;28;20690;-67
2020/12/02 10:35:56;;;;;;;31.92;19.05;;;5.60;94.10;;;;;;8406960;28;20212;-67
2020/12/02 10:39:58;;;;;;;34.13;20.02;;;5.60;94.10;;;;;;8407618;27;20055;-67
2020/12/02 10:44:11;;;;;;;35.33;20.43;;;5.60;94.10;;;;;;8403177;28;20066;-67
2020/12/02 10:48:18;;;;;;;35.67;20.98;;;5.60;94.10;;;;;;8407413;28;20517;-67
2020/12/02 10:52:20;;;;;;;36.80;21.85;;;5.60;94.00;;;;;;8409963;28;20097;-67
2020/12/02 10:56:23;;;;;;;37.23;20.73;;;5.50;94.10;;;;;;8407227;28;20105;-67
2020/12/02 11:00:25;;;;;;;40.70;23.40;;;5.50;94.10;;;;;;8405389;28;20044;-67
2020/12/02 11:04:26;;;;;;;41.15;22.38;;;5.50;94.20;;;;;;8410564;28;20508;-67
2020/12/02 11:09:09;;;;;;;40.77;23.27;;;5.50;94.30;;;;;;8388078;28;20047;-66
2020/12/02 11:13:30;;;;;;;37.83;21.77;;;5.50;94.20;;;;;;8397992;28;20059;-67
2020/12/02 11:17:55;;;;;;;38.75;22.65;;;5.60;94.40;;;;;;8401359;28;20479;-67
2020/12/02 11:22:11;;;;;;;38.58;21.90;;;5.50;94.30;;;;;;8417578;27;20048;-66
2020/12/02 11:26:29;;;;;;;43.40;23.02;;;5.50;94.40;;;;;;8403807;28;20054;-67
2020/12/02 11:30:38;;;;;;;40.40;22.30;;;5.50;94.40;;;;;;8405145;28;20723;-67
2020/12/02 11:34:45;;;;;;;41.03;22.80;;;5.50;94.50;;;;;;8403131;28;20059;-67
2020/12/02 11:38:56;;;;;;;42.50;22.75;;;5.50;94.40;;;;;;8404915;28;20048;-68
2020/12/02 11:43:12;;;;;;;45.42;23.85;;;5.50;94.50;;;;;;8405436;28;20052;-67
2020/12/02 11:47:45;;;;;;;44.13;23.98;;;5.50;94.40;;;;;;8402150;27;20067;-67
2020/12/02 11:51:58;;;;;;;44.03;23.17;;;5.50;94.40;;;;;;8387348;28;20056;-67
2020/12/02 11:56:01;;;;;;;45.17;24.02;;;5.40;94.50;;;;;;8403129;28;20056;-67
2020/12/02 12:00:03;;;;;;;48.15;24.95;;;5.40;94.50;;;;;;8404646;28;20044;-67
2020/12/02 12:04:32;;;;;;;55.85;26.33;;;5.50;94.50;;;;;;8404698;28;20036;-67
2020/12/02 12:08:47;;;;;;;47.53;26.73;;;5.50;94.40;;;;;;8399984;28;20061;-67
2020/12/02 12:13:19;;;;;;;48.08;27.65;;;5.50;94.40;;;;;;8403309;28;20052;-67
2020/12/02 12:17:40;;;;;;;48.90;26.23;;;5.50;94.40;;;;;;8398776;28;20101;-67
2020/12/02 12:21:53;;;;;;;50.08;27.35;;;5.50;94.40;;;;;;8403996;28;20059;-66
2020/12/02 12:25:56;;;;;;;49.30;27.42;;;5.50;94.40;;;;;;8400425;27;20056;-68
2020/12/02 12:29:58;;;;;;;52.13;29.83;;;5.50;94.50;;;;;;8404838;28;20052;-68
2020/12/02 12:34:11;;;;;;;53.87;29.83;;;5.50;94.40;;;;;;8402667;28;20048;-68
2020/12/02 12:38:13;;;;;;;50.97;30.38;;;5.50;94.40;;;;;;8400760;28;20048;-68
2020/12/02 12:42:21;;;;;;;58.27;31.17;;;5.50;94.50;;;;;;8402842;28;20116;-68
2020/12/02 12:46:34;;;;;;;57.50;30.63;;;5.60;94.40;;;;;;8404279;28;20040;-68
2020/12/02 12:50:44;;;;;;;54.40;30.55;;;5.60;94.40;;;;;;8404388;28;20048;-67
2020/12/02 12:54:46;;;;;;;52.42;29.75;;;5.50;94.40;;;;;;8403508;28;20048;-68
2020/12/02 12:58:48;;;;;;;53.95;30.58;;;5.50;94.40;;;;;;8405339;28;20184;-67
2020/12/02 13:03:17;;;;;;;48.90;28.67;;;5.50;94.40;;;;;;8403744;28;20072;-67
2020/12/02 13:07:24;;;;;;;49.38;29.17;;;5.50;94.30;;;;;;8406649;28;20070;-67
2020/12/02 13:11:54;;;;;;;52.13;29.08;;;5.40;94.40;;;;;;8397518;28;20066;-68
2020/12/02 13:16:23;;;;;;;50.42;29.77;;;5.40;94.30;;;;;;8398256;28;20051;-68
2020/12/02 13:20:34;;;;;;;50.20;28.92;;;5.40;94.30;;;;;;8406504;28;20054;-68
2020/12/02 13:25:15;;;;;;;52.30;30.65;;;5.40;94.30;;;;;;8412454;28;20040;-68
2020/12/02 13:29:38;;;;;;;49.65;28.83;;;5.40;94.30;;;;;;8407313;27;20051;-68
2020/12/02 13:33:40;;;;;;;50.80;28.92;;;5.40;94.30;;;;;;8411696;28;20167;-68
2020/12/02 13:37:44;;;;;;;47.75;28.63;;;5.40;94.30;;;;;;8411111;28;20453;-69
2020/12/02 13:41:49;;;;;;;47.78;27.08;;;5.30;94.30;;;;;;8401601;28;20048;-68
2020/12/02 13:45:51;;;;;;;43.50;26.38;;;5.30;94.30;;;;;;8419565;27;20051;-68
2020/12/02 13:49:55;;;;;;;46.20;27.35;;;5.40;94.30;;;;;;8397207;28;20105;-67
2020/12/02 13:54:04;;;;;;;45.92;27.23;;;5.30;94.30;;;;;;8407193;28;20071;-68
2020/12/02 13:58:05;;;;;;;50.45;27.98;;;5.30;94.20;;;;;;8406470;28;20105;-68
2020/12/02 14:02:41;;;;;;;45.28;27.75;;;5.30;94.20;;;;;;8406445;28;20680;-68
2020/12/02 14:06:55;;;;;;;49.42;28.15;;;5.30;94.10;;;;;;8405999;28;20651;-68
2020/12/02 14:10:58;;;;;;;48.03;28.05;;;5.20;94.10;;;;;;8405245;27;20112;-68
2020/12/02 14:15:00;;;;;;;49.50;26.45;;;5.20;94.30;;;;;;8391397;28;20764;-68
2020/12/02 14:19:02;;;;;;;46.78;27.65;;;5.20;94.30;;;;;;8406647;28;20052;-68
2020/12/02 14:23:04;;;;;;;;;;;5.20;94.30;;;;;;8400747;28;20497;-68
2020/12/02 14:27:08;;;;;;;48.53;29.17;;;5.20;94.30;;;;;;8407494;28;20293;-68
2020/12/02 14:31:10;;;;;;;48.85;27.38;;;5.20;94.60;;;;;;8406661;27;20398;-68
2020/12/02 14:35:13;;;;;;;52.58;30.33;;;5.10;94.30;;;;;;8405496;28;20481;-68
2020/12/02 14:39:17;;;;;;;55.15;30.05;;;4.10;94.00;;;;;;8406893;28;20127;-68
2020/12/02 14:43:23;;;;;;;50.42;27.88;;;5.20;94.30;;;;;;8402785;28;20408;-68
2020/12/02 14:47:25;;;;;;;53.08;28.00;;;5.20;94.30;;;;;;8403522;27;20043;-67
2020/12/02 14:51:26;;;;;;;51.33;26.97;;;5.20;94.20;;;;;;8407505;28;20515;-68
2020/12/02 14:55:30;;;;;;;49.17;28.83;;;5.20;94.20;;;;;;8404517;28;20043;-68
2020/12/02 14:59:47;;;;;;;47.40;27.00;;;5.10;94.20;;;;;;8388248;28;20123;-67
2020/12/02 15:03:48;;;;;;;48.60;27.73;;;5.10;94.20;;;;;;8405006;28;20048;-67
2020/12/02 15:08:05;;;;;;;48.00;28.03;;;5.20;94.10;;;;;;8407552;28;20043;-68
2020/12/02 15:12:07;;;;;;;45.25;26.20;;;5.10;94.10;;;;;;8397687;28;20079;-68
2020/12/02 15:16:10;;;;;;;48.92;27.83;;;5.00;94.10;;;;;;8414158;28;20043;-68
2020/12/02 15:20:14;;;;;;;;;;;5.10;94.10;;;;;;8367192;28;20052;-67
2020/12/02 15:24:16;;;;;;;45.83;27.27;;;5.10;94.20;;;;;;8407634;28;20424;-67
2020/12/02 15:28:23;;;;;;;49.38;29.10;;;5.00;94.10;;;;;;8399167;28;20102;-68
2020/12/02 15:32:32;;;;;;;49.15;28.38;;;5.00;94.10;;;;;;8405095;28;20054;-68
2020/12/02 15:36:42;;;;;;;48.10;28.67;;;4.90;93.90;;;;;;8393036;28;20614;-67
2020/12/02 15:41:00;;;;;;;51.15;29.05;;;4.90;94.00;;;;;;8392144;28;20044;-67
2020/12/02 15:45:16;;;;;;;47.40;27.60;;;5.20;94.20;;;;;;8393205;28;20048;-67
2020/12/02 15:49:52;;;;;;;48.28;27.83;;;4.90;94.00;;;;;;8386675;28;20032;-68
2020/12/02 15:54:02;;;;;;;48.20;27.90;;;4.70;94.10;;;;;;8386776;28;20124;-67
2020/12/02 15:58:41;;;;;;;48.88;28.17;;;4.90;94.10;;;;;;8384658;27;20822;-68
2020/12/02 16:02:42;;;;;;;46.42;26.23;;;4.90;94.00;;;;;;8391788;28;20044;-67
2020/12/02 16:07:14;;;;;;;47.40;26.20;;;4.80;94.00;;;;;;8396918;27;20048;-67
2020/12/02 16:11:18;;;;;;;49.70;27.35;;;4.80;94.00;;;;;;8364732;28;20580;-67
2020/12/02 16:15:20;;;;;;;45.58;26.52;;;4.80;94.00;;;;;;8399566;28;20043;-67
2020/12/02 16:19:22;;;;;;;48.83;27.57;;;4.80;94.00;;;;;;8399406;28;20056;-68
2020/12/02 16:23:30;;;;;;;;;;;4.80;94.00;;;;;;8396198;28;20161;-68
2020/12/02 16:27:32;;;;;;;50.30;27.70;;;4.80;94.10;;;;;;8394997;28;19920;-68
2020/12/02 16:31:34;;;;;;;48.40;27.70;;;4.70;94.00;;;;;;8388247;28;20040;-67
2020/12/02 16:35:36;;;;;;;47.13;26.05;;;4.80;94.10;;;;;;8389277;28;20048;-68
2020/12/02 16:39:37;;;;;;;48.77;26.60;;;4.80;94.00;;;;;;8381228;28;20048;-68
2020/12/02 16:43:59;;;;;;;45.65;26.63;;;4.70;94.00;;;;;;8391944;28;20398;-68
2020/12/02 16:48:25;;;;;;;42.17;24.80;;;4.70;94.00;;;;;;8393893;28;20506;-68
2020/12/02 16:52:57;;;;;;;45.13;25.10;;;4.80;94.00;;;;;;8376891;27;20124;-68
2020/12/02 16:57:09;;;;;;;45.30;25.70;;;4.80;94.00;;;;;;8397342;28;20504;-69
2020/12/02 17:01:18;;;;;;;45.05;26.67;;;4.80;93.90;;;;;;8400127;28;20822;-69
2020/12/02 17:05:25;;;;;;;45.53;27.50;;;4.70;93.80;;;;;;8383866;28;20051;-69
2020/12/02 17:09:27;;;;;;;43.83;25.10;;;4.80;93.90;;;;;;8388804;28;20462;-69
2020/12/02 17:14:08;;;;;;;43.05;25.73;;;4.80;93.90;;;;;;8388944;28;20066;-69
2020/12/02 17:18:23;;;;;;;42.78;26.05;;;4.80;93.80;;;;;;8389709;28;20047;-69
2020/12/02 17:22:54;;;;;;;40.72;25.23;;;4.80;93.70;;;;;;8400993;28;20043;-69
2020/12/02 17:27:03;;;;;;;46.33;24.15;;;4.70;93.60;;;;;;8395964;28;20672;-69
2020/12/02 17:31:50;;;;;;;42.15;25.15;;;4.70;93.80;;;;;;8394317;28;20040;-69
2020/12/02 17:36:17;;;;;;;40.97;24.58;;;4.60;93.70;;;;;;8392338;28;20048;-69
2020/12/02 17:40:27;;;;;;;39.33;22.10;;;4.60;93.80;;;;;;8405941;28;20064;-68
2020/12/02 17:44:59;;;;;;;41.67;24.35;;;4.50;93.90;;;;;;8389831;28;20093;-69
2020/12/02 17:49:21;;;;;;;38.70;22.63;;;4.60;93.80;;;;;;8401667;28;20084;-69
2020/12/02 17:53:24;;;;;;;;;;;4.60;93.80;;;;;;8399036;28;20040;-69
2020/12/02 17:57:27;;;;;;;37.28;21.45;;;4.50;93.90;;;;;;8391122;28;19924;-69
2020/12/02 18:01:49;;;;;;;36.17;22.50;;;5.00;94.00;;;;;;8388622;28;20051;-70
2020/12/02 18:06:03;;;;;;;39.40;23.00;;;4.50;93.70;;;;;;8388237;28;20056;-69
2020/12/02 18:10:07;;;;;;;38.33;22.90;;;4.50;93.70;;;;;;8397672;28;20082;-68
2020/12/02 18:14:35;;;;;;;36.65;22.67;;;4.50;93.70;;;;;;8406841;28;20067;-69
2020/12/02 18:19:01;;;;;;;38.05;23.40;;;4.50;93.60;;;;;;8402650;27;20067;-69
2020/12/02 18:23:30;;;;;;;36.55;22.92;;;4.50;93.60;;;;;;8393825;28;20382;-69
2020/12/02 18:27:44;;;;;;;39.40;23.08;;;4.50;93.60;;;;;;8396422;28;20649;-69
2020/12/02 18:31:51;;;;;;;37.03;23.08;;;4.50;93.60;;;;;;8404928;28;20093;-68
2020/12/02 18:36:13;;;;;;;37.92;22.83;;;4.50;93.60;;;;;;8396707;28;20048;-69
2020/12/02 18:40:37;;;;;;;36.10;22.73;;;4.50;93.50;;;;;;8398460;28;20048;-69
2020/12/02 18:44:46;;;;;;;40.00;23.15;;;4.40;93.60;;;;;;8396411;28;20043;-69
2020/12/02 18:48:59;;;;;;;37.97;22.42;;;4.30;93.50;;;;;;8394266;28;20063;-69
2020/12/02 18:53:01;;;;;;;41.97;23.75;;;4.30;93.60;;;;;;8392709;28;20044;-69
2020/12/02 18:57:21;;;;;;;40.60;24.03;;;4.40;93.60;;;;;;8396307;28;20053;-69
2020/12/02 19:01:24;;;;;;;38.97;23.60;;;4.30;93.50;;;;;;8406797;28;20051;-69
2020/12/02 19:05:28;;;;;;;41.40;24.35;;;4.30;93.60;;;;;;8394441;27;20047;-69
2020/12/02 19:09:31;;;;;;;42.47;24.40;;;4.30;93.60;;;;;;8394533;28;20052;-69
2020/12/02 19:13:52;;;;;;;41.03;24.95;;;4.30;93.60;;;;;;8379013;28;20129;-66
2020/12/02 19:18:25;;;;;;;41.17;25.05;;;4.30;93.50;;;;;;8392731;28;20044;-68
2020/12/02 19:22:41;;;;;;;41.55;24.30;;;4.30;93.60;;;;;;8401595;28;20044;-68
2020/12/02 19:27:08;;;;;;;42.33;23.95;;;4.30;93.60;;;;;;8388619;28;20052;-68
2020/12/02 19:31:17;;;;;;;38.35;23.92;;;4.30;93.60;;;;;;8392346;28;20036;-68
2020/12/02 19:35:38;;;;;;;43.70;25.27;;;4.30;93.50;;;;;;8394987;28;20090;-68
2020/12/02 19:39:48;;;;;;;42.83;24.48;;;4.30;93.50;;;;;;8405533;28;20048;-68
2020/12/02 19:44:04;;;;;;;40.85;24.25;;;4.30;93.50;;;;;;8394117;28;20056;-68
2020/12/02 19:48:32;;;;;;;38.00;23.50;;;4.30;93.50;;;;;;8402618;28;20319;-68
2020/12/02 19:52:34;;;;;;;41.80;24.77;;;4.20;93.50;;;;;;8393515;28;20048;-68
2020/12/02 19:56:53;;;;;;;;;;;4.20;93.50;;;;;;8399265;28;20684;-69
2020/12/02 20:00:56;;;;;;;37.33;23.15;;;4.20;93.60;;;;;;8406910;28;19926;-68
2020/12/02 20:05:23;;;;;;;37.80;23.77;;;4.20;93.50;;;;;;8390635;28;20048;-69
2020/12/02 20:09:44;;;;;;;37.85;22.83;;;4.10;93.50;;;;;;8392717;28;20524;-68
2020/12/02 20:14:17;;;;;;;38.08;22.77;;;4.10;93.50;;;;;;8405123;28;20105;-69
2020/12/02 20:18:57;;;;;;;39.35;24.10;;;4.10;93.50;;;;;;8391347;28;20032;-69
2020/12/02 20:23:05;;;;;;;40.10;23.88;;;4.10;93.50;;;;;;8384425;28;20047;-68
2020/12/02 20:27:07;;;;;;;41.00;23.80;;;4.00;93.60;;;;;;8388569;28;20048;-68
2020/12/02 20:31:13;;;;;;;35.73;22.60;;;3.90;93.50;;;;;;8394523;28;20052;-70
2020/12/02 20:35:38;;;;;;;34.47;21.48;;;4.00;93.50;;;;;;8388428;28;20055;-69
2020/12/02 20:39:45;;;;;;;36.13;21.88;;;4.00;93.50;;;;;;8398244;28;20036;-68
2020/12/02 20:43:50;;;;;;;36.55;20.92;;;4.00;93.40;;;;;;8393171;28;20052;-69
2020/12/02 20:48:00;;;;;;;33.80;21.48;;;4.00;93.40;;;;;;8392878;28;20079;-69
2020/12/02 20:52:31;;;;;;;33.47;21.83;;;4.20;93.40;;;;;;8397040;28;20101;-68
2020/12/02 20:56:43;;;;;;;32.83;20.10;;;4.00;93.30;;;;;;8341743;28;20518;-70
2020/12/02 21:00:45;;;;;;;30.90;18.90;;;4.00;93.30;;;;;;8404914;28;20047;-68
2020/12/02 21:04:51;;;;;;;34.13;19.52;;;4.00;93.30;;;;;;8393008;28;20452;-69
2020/12/02 21:08:53;;;;;;;34.88;20.25;;;4.00;93.30;;;;;;8392684;28;20052;-69
2020/12/02 21:12:59;;;;;;;34.83;20.80;;;4.00;93.30;;;;;;8402490;28;20063;-69
2020/12/02 21:17:18;;;;;;;36.30;20.95;;;4.00;93.30;;;;;;8402185;28;20101;-68
2020/12/02 21:21:19;;;;;;;37.78;21.90;;;3.90;93.20;;;;;;8405979;28;20727;-68
2020/12/02 21:25:37;;;;;;;42.43;22.80;;;4.00;93.20;;;;;;8378886;28;20082;-68